Time;durP1;ratioP1;P1;durP2;ratioP2;P2;SDS_P1;SDS_P2;PMS_P1;PMS_P2;Temp;Humidity;BMP_temperature;BMP_pressure;BME280_temperature;BME280_humidity;BME280_pressure;Samples;Min_cycle;Max_cycle;Signal;HPM_P1;HPM_P2
2023/06/01 00:00:01;;;;;;;5.47;4.90;;;27.60;52.70;;;;;;5063211;28;20685;-71
2023/06/01 00:02:32;;;;;;;4.40;4.10;;;27.60;52.70;;;;;;5073283;28;20894;-71
2023/06/01 00:05:00;;;;;;;4.97;4.47;;;27.50;52.70;;;;;;5072898;28;20467;-72
2023/06/01 00:07:29;;;;;;;4.40;4.10;;;27.50;52.70;;;;;;5073587;28;20442;-71
2023/06/01 00:09:58;;;;;;;5.30;4.90;;;27.50;52.70;;;;;;5072850;28;20464;-71
2023/06/01 00:12:26;;;;;;;4.30;4.00;;;27.50;52.80;;;;;;5057711;28;20842;-72
2023/06/01 00:14:56;;;;;;;4.83;4.43;;;27.50;52.80;;;;;;5056800;28;20943;-71
2023/06/01 00:17:24;;;;;;;4.77;4.40;;;27.50;52.80;;;;;;5073549;28;20436;-72
2023/06/01 00:19:53;;;;;;;5.50;5.00;;;27.50;52.80;;;;;;5072719;28;20473;-71
2023/06/01 00:22:23;;;;;;;4.20;3.90;;;27.50;52.80;;;;;;5071996;28;20435;-71
2023/06/01 00:24:51;;;;;;;4.93;4.60;;;27.50;52.80;;;;;;5070144;28;20471;-71
2023/06/01 00:27:20;;;;;;;4.87;4.57;;;27.40;52.80;;;;;;5061377;28;20580;-73
2023/06/01 00:29:48;;;;;;;5.10;4.70;;;27.40;52.80;;;;;;5050930;28;20462;-71
2023/06/01 00:32:18;;;;;;;4.50;4.10;;;27.40;52.80;;;;;;5051530;28;20455;-71
2023/06/01 00:34:46;;;;;;;5.70;5.27;;;27.40;52.80;;;;;;5030146;28;20456;-71
2023/06/01 00:37:14;;;;;;;4.97;4.40;;;27.40;52.80;;;;;;5035355;28;20511;-71
2023/06/01 00:39:42;;;;;;;5.10;4.70;;;27.40;52.90;;;;;;5052386;28;20507;-71
2023/06/01 00:42:10;;;;;;;4.73;4.33;;;27.40;52.90;;;;;;5052858;28;20437;-72
2023/06/01 00:44:39;;;;;;;4.30;4.00;;;27.40;52.90;;;;;;5050852;28;20478;-71
2023/06/01 00:47:07;;;;;;;4.53;4.23;;;27.40;52.90;;;;;;5052798;28;20469;-72
2023/06/01 00:49:37;;;;;;;4.60;4.20;;;27.40;52.90;;;;;;5033858;28;20854;-71
2023/06/01 00:52:06;;;;;;;4.37;4.07;;;27.30;52.90;;;;;;5052038;28;20444;-72
2023/06/01 00:54:35;;;;;;;5.53;4.37;;;27.30;52.90;;;;;;5033648;28;20463;-71
2023/06/01 00:57:03;;;;;;;5.10;4.60;;;27.30;53.00;;;;;;5051463;28;20797;-71
2023/06/01 00:59:31;;;;;;;4.80;4.40;;;27.30;53.00;;;;;;5050664;28;20461;-71
2023/06/01 01:02:00;;;;;;;4.70;4.40;;;27.30;53.00;;;;;;5050973;28;20553;-73
2023/06/01 01:04:28;;;;;;;4.73;4.30;;;27.30;53.00;;;;;;5058707;28;20458;-71
2023/06/01 01:07:09;;;;;;;4.80;4.40;;;27.30;53.00;;;;;;5040656;28;20501;-71
2023/06/01 01:09:45;;;;;;;5.17;4.77;;;27.30;53.00;;;;;;5031891;28;20465;-71
2023/06/01 01:12:22;;;;;;;4.03;3.73;;;27.30;53.00;;;;;;5049755;28;20821;-71
2023/06/01 01:14:58;;;;;;;5.40;4.90;;;27.30;53.00;;;;;;5034638;28;20505;-71
2023/06/01 01:17:32;;;;;;;4.53;4.13;;;27.30;53.00;;;;;;5051938;28;20895;-72
2023/06/01 01:20:08;;;;;;;4.80;4.40;;;27.30;53.00;;;;;;5034001;28;20963;-73
2023/06/01 01:23:04;;;;;;;4.90;4.50;;;27.20;53.10;;;;;;5051935;28;20481;-72
2023/06/01 01:26:14;;;;;;;4.43;4.03;;;27.20;53.10;;;;;;5052122;28;20435;-72
2023/06/01 01:28:48;;;;;;;4.50;4.10;;;27.20;53.10;;;;;;5042194;28;20492;-72
2023/06/01 01:31:19;;;;;;;5.17;4.70;;;27.20;53.10;;;;;;5020495;28;20978;-71
2023/06/01 01:33:49;;;;;;;4.50;4.20;;;27.20;53.10;;;;;;5030131;28;20506;-71
2023/06/01 01:36:18;;;;;;;4.43;4.13;;;27.20;53.10;;;;;;5037948;28;20459;-71
2023/06/01 01:38:46;;;;;;;4.97;4.57;;;27.20;53.10;;;;;;5046961;28;20467;-74
2023/06/01 01:41:14;;;;;;;4.93;4.53;;;27.20;53.20;;;;;;5051459;28;20471;-71
2023/06/01 01:43:44;;;;;;;3.77;3.47;;;27.20;53.20;;;;;;5051132;28;20992;-71
2023/06/01 01:46:25;;;;;;;3.90;3.60;;;27.20;53.20;;;;;;5029989;28;20914;-71
2023/06/01 01:49:02;;;;;;;4.33;4.03;;;27.10;53.20;;;;;;5035746;28;20814;-73
2023/06/01 01:51:37;;;;;;;4.50;4.20;;;27.10;53.20;;;;;;5049202;28;20939;-72
2023/06/01 01:54:07;;;;;;;4.30;4.00;;;27.10;53.20;;;;;;5050334;28;20462;-71
2023/06/01 01:56:37;;;;;;;4.47;4.07;;;27.10;53.20;;;;;;5032314;28;20522;-72
2023/06/01 01:59:07;;;;;;;4.63;3.93;;;27.10;53.20;;;;;;5048523;28;20469;-72
2023/06/01 02:01:36;;;;;;;5.50;5.00;;;27.10;53.20;;;;;;5032642;28;20457;-72
2023/06/01 02:04:07;;;;;;;4.47;4.17;;;27.10;53.20;;;;;;5026361;28;20464;-72
2023/06/01 02:06:36;;;;;;;4.70;4.30;;;27.10;53.20;;;;;;5049825;28;20478;-71
2023/06/01 02:09:07;;;;;;;3.83;3.63;;;27.10;53.20;;;;;;5033153;28;20545;-72
2023/06/01 02:11:35;;;;;;;5.30;4.90;;;27.10;53.20;;;;;;5046424;28;20931;-71
2023/06/01 02:14:04;;;;;;;4.73;4.30;;;27.10;53.20;;;;;;5032044;28;20514;-71
2023/06/01 02:16:34;;;;;;;4.73;4.33;;;27.10;53.20;;;;;;5026179;28;20462;-71
2023/06/01 02:19:03;;;;;;;3.70;3.40;;;27.10;53.40;;;;;;5030340;28;20479;-71
2023/06/01 02:21:33;;;;;;;4.37;4.00;;;27.10;53.20;;;;;;5026981;28;20460;-71
2023/06/01 02:24:05;;;;;;;4.37;4.07;;;27.10;53.20;;;;;;5029913;28;20578;-71
2023/06/01 02:26:34;;;;;;;4.47;4.17;;;27.10;53.20;;;;;;5047509;28;20550;-72
2023/06/01 02:29:04;;;;;;;4.10;3.80;;;27.10;53.20;;;;;;5051847;28;20457;-72
2023/06/01 02:31:35;;;;;;;5.00;4.60;;;27.10;53.20;;;;;;5051808;28;20467;-74
2023/06/01 02:34:04;;;;;;;5.43;4.93;;;27.00;53.20;;;;;;5049397;28;20462;-72
2023/06/01 02:36:34;;;;;;;4.30;3.90;;;27.10;53.20;;;;;;5054657;28;20461;-72
2023/06/01 02:39:02;;;;;;;4.47;4.13;;;27.00;53.20;;;;;;5056171;28;20461;-72
2023/06/01 02:41:31;;;;;;;4.70;4.30;;;27.00;53.20;;;;;;5073545;28;20547;-72
2023/06/01 02:43:59;;;;;;;4.63;4.23;;;27.00;53.20;;;;;;5054342;28;20552;-71
2023/06/01 02:46:28;;;;;;;4.60;4.23;;;27.00;53.20;;;;;;5055978;28;20462;-71
2023/06/01 02:48:58;;;;;;;4.43;4.13;;;27.00;53.20;;;;;;5053975;28;20799;-72
2023/06/01 02:51:26;;;;;;;4.27;3.77;;;27.00;53.20;;;;;;5056365;28;20499;-71
2023/06/01 02:54:05;;;;;;;5.27;4.30;;;27.00;53.20;;;;;;5050625;28;20469;-72
2023/06/01 02:56:33;;;;;;;4.47;4.17;;;27.00;53.20;;;;;;5058600;28;20471;-72
2023/06/01 02:59:19;;;;;;;4.83;4.43;;;27.00;53.20;;;;;;5092785;28;20448;-71
2023/06/01 03:01:56;;;;;;;4.47;4.07;;;27.00;53.20;;;;;;5067888;28;20501;-72
2023/06/01 03:04:28;;;;;;;4.33;4.03;;;27.00;53.20;;;;;;5056593;28;20453;-73
2023/06/01 03:06:58;;;;;;;4.33;4.00;;;26.90;53.20;;;;;;5039410;28;20477;-71
2023/06/01 03:09:53;;;;;;;4.03;3.73;;;26.90;53.20;;;;;;5064973;28;20844;-73
2023/06/01 03:12:53;;;;;;;4.43;4.03;;;26.90;53.20;;;;;;5056805;28;20468;-72
2023/06/01 03:15:23;;;;;;;4.23;3.90;;;26.90;53.40;;;;;;5055808;28;20455;-73
2023/06/01 03:17:52;;;;;;;4.53;4.13;;;26.90;53.20;;;;;;5074862;28;20442;-72
2023/06/01 03:20:22;;;;;;;4.30;3.90;;;26.90;53.20;;;;;;5053691;28;20462;-72
2023/06/01 03:22:50;;;;;;;4.20;3.90;;;26.90;53.40;;;;;;5054348;28;20468;-72
2023/06/01 03:25:20;;;;;;;3.90;3.60;;;26.90;53.40;;;;;;5056404;28;20471;-72
2023/06/01 03:27:48;;;;;;;4.67;4.30;;;26.90;53.40;;;;;;5055158;28;20486;-72
2023/06/01 03:30:16;;;;;;;4.63;4.23;;;26.90;53.40;;;;;;5054860;28;20458;-73
2023/06/01 03:32:45;;;;;;;4.37;4.07;;;26.90;53.40;;;;;;5054260;28;20464;-72
2023/06/01 03:35:14;;;;;;;5.00;4.27;;;26.90;53.40;;;;;;5048984;28;21052;-72
2023/06/01 03:37:46;;;;;;;4.40;4.00;;;26.90;53.40;;;;;;5054491;28;20450;-73
2023/06/01 03:40:17;;;;;;;3.90;3.60;;;26.90;53.40;;;;;;5064963;28;20548;-72
2023/06/01 03:42:47;;;;;;;3.97;3.63;;;26.90;53.40;;;;;;5056117;28;20461;-72
2023/06/01 03:45:17;;;;;;;5.00;4.60;;;26.80;53.40;;;;;;5054057;28;20498;-72
2023/06/01 03:47:45;;;;;;;4.70;4.40;;;26.80;53.40;;;;;;5036307;28;20484;-72
2023/06/01 03:50:14;;;;;;;4.03;3.73;;;26.80;53.40;;;;;;5048981;28;20479;-71
2023/06/01 03:52:44;;;;;;;4.70;4.30;;;26.80;53.40;;;;;;5067559;28;21000;-74
2023/06/01 03:55:13;;;;;;;4.57;4.10;;;26.80;53.40;;;;;;5048941;28;20460;-72
2023/06/01 03:58:11;;;;;;;4.17;3.80;;;26.80;53.40;;;;;;5047001;28;20503;-71
2023/06/01 04:00:41;;;;;;;4.90;3.70;;;26.80;53.40;;;;;;5053665;28;20461;-71
2023/06/01 04:03:09;;;;;;;4.50;4.10;;;26.80;53.40;;;;;;5055699;28;21004;-70
2023/06/01 04:05:38;;;;;;;3.80;3.50;;;26.80;53.40;;;;;;5056181;28;20461;-71
2023/06/01 04:08:08;;;;;;;4.00;3.70;;;26.80;53.40;;;;;;5070388;28;20484;-72
2023/06/01 04:10:36;;;;;;;4.10;3.80;;;26.80;53.40;;;;;;5051417;28;20474;-71
2023/06/01 04:13:05;;;;;;;4.00;3.70;;;26.80;53.40;;;;;;5073074;28;21034;-72
2023/06/01 04:15:33;;;;;;;4.50;4.20;;;26.80;53.40;;;;;;5060759;28;20470;-72
2023/06/01 04:18:02;;;;;;;4.10;3.80;;;26.80;53.40;;;;;;5035395;28;20454;-72
2023/06/01 04:20:48;;;;;;;5.13;3.97;;;26.80;53.40;;;;;;5051223;28;20464;-72
2023/06/01 04:23:17;;;;;;;4.17;3.87;;;26.80;53.40;;;;;;5055207;28;20467;-72
2023/06/01 04:25:45;;;;;;;4.70;4.30;;;26.80;53.50;;;;;;5072795;28;20443;-72
2023/06/01 04:28:14;;;;;;;4.67;4.33;;;26.80;53.40;;;;;;5043468;28;20496;-72
2023/06/01 04:30:44;;;;;;;5.57;4.80;;;26.80;53.40;;;;;;5031307;28;20459;-72
2023/06/01 04:33:12;;;;;;;4.23;3.90;;;26.80;53.40;;;;;;5057483;28;20473;-72
2023/06/01 04:35:43;;;;;;;4.97;4.57;;;26.80;53.40;;;;;;5071082;28;20522;-72
2023/06/01 04:38:12;;;;;;;4.43;4.10;;;26.80;53.40;;;;;;5071742;28;20573;-72
2023/06/01 04:40:44;;;;;;;4.40;4.00;;;26.80;53.50;;;;;;5069696;28;20449;-72
2023/06/01 04:43:13;;;;;;;3.73;3.43;;;26.80;53.40;;;;;;5048058;28;20978;-72
2023/06/01 04:45:41;;;;;;;4.57;4.17;;;26.80;53.40;;;;;;5056801;28;20455;-71
2023/06/01 04:48:09;;;;;;;4.53;4.13;;;26.80;53.40;;;;;;5054662;28;20485;-71
2023/06/01 04:50:48;;;;;;;3.90;3.60;;;26.80;53.40;;;;;;5054698;28;20461;-71
2023/06/01 04:53:16;;;;;;;3.63;3.40;;;26.80;53.40;;;;;;5072025;28;20858;-72
2023/06/01 04:55:46;;;;;;;4.10;3.90;;;26.80;53.40;;;;;;5054517;28;20453;-72
2023/06/01 04:58:15;;;;;;;4.27;3.97;;;26.80;53.40;;;;;;5065491;28;20511;-71
2023/06/01 05:00:43;;;;;;;5.77;4.33;;;26.80;53.40;;;;;;5050372;28;20469;-74
2023/06/01 05:03:12;;;;;;;3.90;3.60;;;26.80;53.40;;;;;;5073720;28;21418;-71
2023/06/01 05:05:40;;;;;;;4.00;3.70;;;26.80;53.40;;;;;;5053646;28;20540;-72
2023/06/01 05:08:08;;;;;;;3.93;3.63;;;26.80;53.40;;;;;;5054256;28;20517;-71
2023/06/01 05:10:37;;;;;;;4.50;4.20;;;26.80;53.40;;;;;;5071701;28;20448;-72
2023/06/01 05:13:06;;;;;;;4.47;4.17;;;26.80;53.50;;;;;;5054142;28;20448;-71
2023/06/01 05:15:35;;;;;;;4.87;4.47;;;26.80;53.50;;;;;;5053693;28;20999;-72
2023/06/01 05:18:04;;;;;;;4.10;3.80;;;26.80;53.50;;;;;;5054245;28;20467;-71
2023/06/01 05:20:32;;;;;;;4.87;4.47;;;26.80;53.50;;;;;;5046168;28;20946;-71
2023/06/01 05:23:01;;;;;;;4.47;4.03;;;26.90;53.50;;;;;;5032277;28;20564;-72
2023/06/01 05:25:29;;;;;;;4.10;3.80;;;26.90;53.50;;;;;;5077325;28;20456;-71
2023/06/01 05:27:57;;;;;;;4.50;3.50;;;26.90;53.50;;;;;;5052298;28;20492;-71
2023/06/01 05:30:28;;;;;;;4.30;4.00;;;26.90;53.50;;;;;;5053560;28;20535;-71
2023/06/01 05:32:57;;;;;;;4.20;3.80;;;26.90;53.50;;;;;;5070885;28;20503;-71
2023/06/01 05:35:25;;;;;;;4.43;4.13;;;26.90;53.50;;;;;;5053178;28;20472;-71
2023/06/01 05:37:53;;;;;;;4.37;4.03;;;26.90;53.60;;;;;;5053917;28;20452;-72
2023/06/01 05:40:22;;;;;;;4.53;4.13;;;26.90;53.60;;;;;;5053343;28;20851;-71
2023/06/01 05:42:50;;;;;;;3.90;3.60;;;26.90;53.50;;;;;;5072934;28;20480;-71
2023/06/01 05:45:18;;;;;;;4.47;4.17;;;26.90;53.50;;;;;;5063802;28;20474;-71
2023/06/01 05:47:49;;;;;;;4.60;4.20;;;26.90;53.50;;;;;;5057992;28;20458;-71
2023/06/01 05:50:17;;;;;;;3.57;3.30;;;26.90;53.50;;;;;;5068348;28;20485;-71
2023/06/01 05:52:46;;;;;;;6.37;4.73;;;26.90;53.50;;;;;;5052615;28;20457;-71
2023/06/01 05:55:15;;;;;;;3.43;3.17;;;26.90;53.50;;;;;;5055123;28;20470;-71
2023/06/01 05:57:45;;;;;;;4.10;3.80;;;26.90;53.50;;;;;;5077126;28;20496;-71
2023/06/01 06:00:15;;;;;;;4.00;3.80;;;26.90;53.50;;;;;;5032966;28;20465;-72
2023/06/01 06:02:43;;;;;;;3.80;3.57;;;27.00;53.50;;;;;;5069617;28;20465;-72
2023/06/01 06:05:14;;;;;;;4.80;4.50;;;27.00;53.50;;;;;;5068522;28;20936;-73
2023/06/01 06:07:42;;;;;;;3.60;3.40;;;27.00;53.50;;;;;;5072114;28;20451;-73
2023/06/01 06:10:12;;;;;;;4.43;4.13;;;27.00;53.50;;;;;;5069989;28;20477;-73
2023/06/01 06:12:41;;;;;;;4.70;4.30;;;27.00;53.60;;;;;;5071500;28;20943;-73
2023/06/01 06:15:10;;;;;;;4.30;3.90;;;27.00;53.60;;;;;;5073525;28;20492;-73
2023/06/01 06:17:38;;;;;;;3.90;3.60;;;27.00;53.60;;;;;;5071925;28;20445;-73
2023/06/01 06:20:08;;;;;;;19.73;9.17;;;27.00;53.60;;;;;;5051008;28;20805;-73
2023/06/01 06:22:37;;;;;;;20.37;8.27;;;27.00;59.50;;;;;;5061071;28;20468;-72
2023/06/01 06:25:08;;;;;;;17.93;7.60;;;27.00;61.10;;;;;;5066433;28;21047;-72
2023/06/01 06:27:36;;;;;;;17.13;7.90;;;27.00;61.10;;;;;;5068364;28;20489;-72
2023/06/01 06:30:06;;;;;;;14.90;6.83;;;27.10;59.70;;;;;;5065310;28;21016;-72
2023/06/01 06:32:35;;;;;;;12.47;7.03;;;27.10;58.40;;;;;;5061100;28;20461;-73
2023/06/01 06:35:04;;;;;;;8.70;6.10;;;27.10;57.50;;;;;;5066912;28;20477;-72
2023/06/01 06:37:32;;;;;;;9.90;5.87;;;27.10;57.00;;;;;;5067764;28;20452;-72
2023/06/01 06:40:03;;;;;;;11.80;5.40;;;27.10;56.80;;;;;;5065779;28;20458;-73
2023/06/01 06:42:31;;;;;;;7.87;5.60;;;27.10;56.70;;;;;;5069452;28;20445;-72
2023/06/01 06:44:59;;;;;;;7.23;5.73;;;27.10;56.60;;;;;;5069079;28;20448;-72
2023/06/01 06:47:28;;;;;;;13.00;5.40;;;27.10;56.50;;;;;;5069310;28;20473;-73
2023/06/01 06:49:57;;;;;;;6.90;5.20;;;27.10;56.40;;;;;;5054472;28;20808;-72
2023/06/01 06:52:25;;;;;;;12.73;5.90;;;27.10;56.30;;;;;;5072177;28;20481;-72
2023/06/01 06:54:53;;;;;;;9.87;6.00;;;27.10;56.20;;;;;;5054651;28;20459;-72
2023/06/01 06:57:22;;;;;;;5.87;4.50;;;27.10;56.10;;;;;;5070564;28;20463;-74
2023/06/01 06:59:50;;;;;;;16.43;5.70;;;27.10;56.10;;;;;;5067454;28;20459;-73
2023/06/01 07:02:19;;;;;;;12.70;5.70;;;27.20;56.00;;;;;;5066662;28;20456;-73
2023/06/01 07:04:48;;;;;;;6.97;5.00;;;27.20;56.00;;;;;;5072331;28;21006;-73
2023/06/01 07:07:16;;;;;;;9.37;4.90;;;27.10;55.90;;;;;;5040103;28;20860;-72
2023/06/01 07:09:45;;;;;;;9.17;6.47;;;27.10;55.80;;;;;;5066051;28;20474;-73
2023/06/01 07:12:13;;;;;;;8.70;4.90;;;27.10;55.80;;;;;;5065195;28;20491;-74
2023/06/01 07:14:43;;;;;;;8.30;5.20;;;27.10;55.80;;;;;;5059656;28;21023;-74
2023/06/01 07:17:11;;;;;;;7.10;5.40;;;27.20;55.70;;;;;;5069261;28;20449;-74
2023/06/01 07:19:39;;;;;;;7.10;4.80;;;27.20;55.60;;;;;;5062830;28;20572;-74
2023/06/01 07:22:08;;;;;;;7.50;4.30;;;27.20;55.50;;;;;;5072091;28;20443;-74
2023/06/01 07:24:36;;;;;;;5.53;4.57;;;27.20;55.50;;;;;;5073330;28;20865;-74
2023/06/01 07:27:05;;;;;;;5.43;4.87;;;27.20;55.40;;;;;;5074805;28;20489;-73
2023/06/01 07:29:33;;;;;;;6.20;4.60;;;27.20;55.40;;;;;;5065705;28;20471;-73
2023/06/01 07:32:03;;;;;;;5.63;4.80;;;27.20;55.40;;;;;;5073183;28;20858;-73
2023/06/01 07:34:33;;;;;;;6.33;4.93;;;27.20;55.40;;;;;;5071989;28;20451;-73
2023/06/01 07:37:01;;;;;;;5.63;5.00;;;27.20;55.40;;;;;;5071568;28;20503;-74
2023/06/01 07:39:44;;;;;;;5.30;4.40;;;27.20;55.30;;;;;;5073533;28;20444;-73
2023/06/01 07:42:12;;;;;;;4.47;3.90;;;27.20;55.30;;;;;;5071526;28;20450;-72
2023/06/01 07:44:40;;;;;;;5.73;4.20;;;27.20;55.20;;;;;;5070831;28;20446;-72
2023/06/01 07:47:10;;;;;;;12.90;5.50;;;27.20;55.20;;;;;;5071083;28;20458;-71
2023/06/01 07:49:38;;;;;;;6.90;4.73;;;27.20;55.20;;;;;;5063801;28;20474;-73
2023/06/01 07:52:08;;;;;;;6.30;4.53;;;27.30;55.10;;;;;;5066261;28;20514;-73
2023/06/01 07:54:36;;;;;;;4.50;4.10;;;27.30;55.10;;;;;;5071259;28;20896;-72
2023/06/01 07:57:05;;;;;;;5.67;4.07;;;27.30;55.10;;;;;;5070748;28;20444;-73
2023/06/01 07:59:33;;;;;;;6.07;4.20;;;27.30;55.10;;;;;;5074040;28;20501;-73
2023/06/01 08:02:02;;;;;;;4.70;4.40;;;27.30;55.10;;;;;;5070788;28;20452;-72
2023/06/01 08:04:33;;;;;;;5.13;4.40;;;27.30;55.10;;;;;;5070744;28;20525;-72
2023/06/01 08:07:03;;;;;;;6.83;4.13;;;27.30;55.20;;;;;;5070273;28;20459;-72
2023/06/01 08:09:32;;;;;;;5.20;4.70;;;27.30;55.20;;;;;;5074111;28;21009;-72
2023/06/01 08:12:00;;;;;;;4.20;3.80;;;27.30;55.20;;;;;;5076375;28;20542;-73
2023/06/01 08:14:32;;;;;;;6.17;4.67;;;27.30;55.20;;;;;;5072200;28;20446;-72
2023/06/01 08:17:01;;;;;;;7.00;4.43;;;27.30;55.20;;;;;;5072094;28;20830;-72
2023/06/01 08:19:31;;;;;;;4.33;3.93;;;27.30;55.20;;;;;;5072960;28;20460;-72
2023/06/01 08:21:59;;;;;;;5.80;5.27;;;27.30;55.20;;;;;;5071904;28;20468;-72
2023/06/01 08:24:28;;;;;;;5.60;5.00;;;27.30;55.20;;;;;;5059319;28;20442;-72
2023/06/01 08:26:57;;;;;;;4.10;3.70;;;27.30;55.20;;;;;;5055287;28;20497;-72
2023/06/01 08:29:25;;;;;;;4.87;4.47;;;27.30;55.20;;;;;;5073620;28;20517;-72
2023/06/01 08:32:09;;;;;;;4.47;4.03;;;27.40;55.20;;;;;;5076181;28;20490;-72
2023/06/01 08:34:40;;;;;;;5.43;4.90;;;27.40;55.10;;;;;;5073053;28;20959;-72
2023/06/01 08:37:09;;;;;;;4.97;4.37;;;27.40;55.20;;;;;;5055281;28;20921;-72
2023/06/01 08:39:37;;;;;;;5.30;4.80;;;27.40;55.20;;;;;;5073757;28;20465;-72
2023/06/01 08:42:09;;;;;;;4.40;4.00;;;27.40;55.10;;;;;;5079083;28;20439;-72
2023/06/01 08:44:41;;;;;;;4.40;4.00;;;27.40;55.20;;;;;;5077912;28;20479;-72
2023/06/01 08:47:09;;;;;;;4.57;4.17;;;27.40;55.10;;;;;;5059333;28;20462;-72
2023/06/01 08:49:41;;;;;;;4.30;3.90;;;27.40;55.10;;;;;;5073706;28;20447;-72
2023/06/01 08:52:13;;;;;;;5.30;4.50;;;27.40;55.10;;;;;;5071613;28;20478;-73
2023/06/01 08:54:41;;;;;;;4.77;4.40;;;27.40;55.10;;;;;;5086931;28;20453;-72
2023/06/01 08:57:10;;;;;;;4.63;4.00;;;27.40;55.10;;;;;;5081706;28;20461;-73
2023/06/01 08:59:39;;;;;;;5.40;4.30;;;27.40;55.10;;;;;;5072292;28;20465;-73
2023/06/01 09:02:07;;;;;;;4.60;4.20;;;27.40;55.10;;;;;;5063741;28;20484;-72
2023/06/01 09:04:38;;;;;;;4.63;4.13;;;27.40;55.00;;;;;;5078133;28;20451;-72
2023/06/01 09:07:08;;;;;;;4.37;3.50;;;27.40;55.00;;;;;;5081008;28;20456;-74
2023/06/01 09:09:36;;;;;;;5.10;3.87;;;27.40;55.00;;;;;;5065939;28;20478;-72
2023/06/01 09:12:23;;;;;;;4.27;3.87;;;27.50;55.00;;;;;;5079904;28;20476;-72
2023/06/01 09:14:51;;;;;;;4.03;3.63;;;27.50;55.00;;;;;;5077453;28;21245;-73
2023/06/01 09:17:24;;;;;;;4.77;4.27;;;27.50;55.00;;;;;;5082770;28;20453;-73
2023/06/01 09:19:55;;;;;;;5.07;4.50;;;27.50;55.00;;;;;;5078305;28;20481;-73
2023/06/01 09:22:25;;;;;;;4.40;4.00;;;27.50;55.00;;;;;;5067913;28;20457;-73
2023/06/01 09:24:57;;;;;;;5.50;4.80;;;27.50;55.00;;;;;;5069923;28;20463;-72
2023/06/01 09:27:26;;;;;;;4.60;4.10;;;27.40;55.00;;;;;;5061165;28;20500;-73
2023/06/01 09:29:56;;;;;;;4.83;4.43;;;27.50;55.10;;;;;;5049128;28;20474;-73
2023/06/01 09:32:25;;;;;;;4.23;3.93;;;27.50;55.10;;;;;;5044059;28;20473;-73
2023/06/01 09:34:54;;;;;;;5.03;4.53;;;27.50;55.10;;;;;;5059915;28;20458;-74
2023/06/01 09:37:23;;;;;;;4.00;3.70;;;27.50;55.10;;;;;;5060374;28;20446;-74
2023/06/01 09:39:52;;;;;;;4.57;4.17;;;27.50;55.00;;;;;;5054229;28;20511;-74
2023/06/01 09:42:32;;;;;;;6.70;3.77;;;27.50;55.00;;;;;;5051282;28;20440;-74
2023/06/01 09:45:16;;;;;;;4.30;4.00;;;27.50;55.00;;;;;;5054544;28;20471;-74
2023/06/01 09:47:45;;;;;;;5.00;4.00;;;27.50;55.00;;;;;;5038855;28;20441;-74
2023/06/01 09:50:33;;;;;;;4.50;4.13;;;27.50;55.00;;;;;;5038390;28;20850;-74
2023/06/01 09:53:02;;;;;;;4.70;4.40;;;27.50;55.00;;;;;;5044657;28;20464;-74
2023/06/01 09:55:32;;;;;;;4.87;4.47;;;27.50;55.00;;;;;;5051535;28;20452;-73
2023/06/01 09:58:19;;;;;;;4.03;3.70;;;27.50;55.00;;;;;;5046353;28;20510;-72
2023/06/01 10:00:49;;;;;;;4.10;3.70;;;27.50;55.00;;;;;;5040693;28;20456;-73
2023/06/01 10:03:18;;;;;;;6.93;4.27;;;27.50;55.00;;;;;;5046216;28;21040;-73
2023/06/01 10:05:47;;;;;;;4.23;3.93;;;27.50;55.00;;;;;;5036501;28;21020;-73
2023/06/01 10:08:17;;;;;;;4.83;3.97;;;27.50;55.00;;;;;;5014464;28;20465;-73
2023/06/01 10:10:49;;;;;;;4.17;3.87;;;27.50;55.00;;;;;;5045249;28;20457;-72
2023/06/01 10:13:17;;;;;;;4.57;4.10;;;27.60;55.20;;;;;;5045479;28;20448;-72
2023/06/01 10:15:46;;;;;;;5.10;4.60;;;27.60;55.50;;;;;;5040258;28;21039;-73
2023/06/01 10:18:17;;;;;;;5.47;3.93;;;27.60;55.60;;;;;;5053296;28;20479;-73
2023/06/01 10:20:47;;;;;;;5.50;4.00;;;27.60;55.70;;;;;;5030083;28;20460;-72
2023/06/01 10:23:16;;;;;;;4.63;4.23;;;27.60;55.70;;;;;;5042780;28;20478;-71
2023/06/01 10:26:06;;;;;;;5.13;4.30;;;27.60;55.80;;;;;;5040928;28;20442;-72
2023/06/01 10:28:36;;;;;;;4.50;4.10;;;27.60;55.80;;;;;;5051655;28;20563;-72
2023/06/01 10:31:38;;;;;;;4.00;3.57;;;27.60;55.80;;;;;;5058040;28;20960;-73
2023/06/01 10:34:07;;;;;;;5.40;5.00;;;27.60;55.90;;;;;;5021423;28;20510;-72
2023/06/01 10:37:17;;;;;;;6.13;4.43;;;27.60;55.80;;;;;;5073929;28;20467;-73
2023/06/01 10:39:46;;;;;;;4.43;4.03;;;27.60;55.80;;;;;;5067618;28;20464;-72
2023/06/01 10:42:40;;;;;;;5.03;4.20;;;27.60;55.80;;;;;;5069818;28;20461;-72
2023/06/01 10:45:24;;;;;;;5.10;4.70;;;27.60;55.90;;;;;;5057422;28;20453;-72
2023/06/01 10:47:52;;;;;;;4.93;4.50;;;27.60;55.80;;;;;;5042130;28;20476;-72
2023/06/01 10:50:20;;;;;;;7.43;4.27;;;27.60;55.80;;;;;;5062763;28;20462;-72
2023/06/01 10:52:50;;;;;;;9.30;4.90;;;27.60;55.80;;;;;;5068904;28;20480;-72
2023/06/01 10:55:24;;;;;;;7.70;5.37;;;27.60;55.70;;;;;;5055394;28;20473;-71
2023/06/01 10:58:24;;;;;;;5.07;4.57;;;27.60;55.70;;;;;;5063555;28;20815;-73
2023/06/01 11:00:55;;;;;;;5.63;5.13;;;27.60;55.90;;;;;;5065457;28;20570;-72
2023/06/01 11:03:45;;;;;;;8.77;5.20;;;27.60;56.10;;;;;;5065288;28;20467;-73
2023/06/01 11:06:33;;;;;;;5.80;5.13;;;27.60;56.20;;;;;;5049034;28;20503;-71
2023/06/01 11:09:05;;;;;;;6.30;5.20;;;27.60;56.10;;;;;;5065271;28;20465;-71
2023/06/01 11:12:02;;;;;;;6.33;5.07;;;27.70;56.20;;;;;;5079592;28;20484;-71
2023/06/01 11:14:33;;;;;;;7.03;6.33;;;27.70;56.30;;;;;;5074351;28;20454;-72
2023/06/01 11:17:27;;;;;;;6.43;5.20;;;27.70;56.30;;;;;;5080117;28;20454;-71
2023/06/01 11:20:05;;;;;;;7.00;5.70;;;27.70;56.30;;;;;;5062327;28;20548;-71
2023/06/01 11:22:37;;;;;;;7.77;5.30;;;27.70;56.30;;;;;;5064349;28;20461;-71
2023/06/01 11:25:09;;;;;;;8.60;5.47;;;27.70;56.30;;;;;;5075123;28;20893;-72
2023/06/01 11:27:42;;;;;;;5.90;5.30;;;27.70;56.20;;;;;;5069885;28;21017;-72
2023/06/01 11:30:21;;;;;;;6.00;5.50;;;27.70;56.20;;;;;;5075894;28;20461;-73
2023/06/01 11:32:53;;;;;;;7.10;6.17;;;27.70;56.30;;;;;;5079273;28;20840;-71
2023/06/01 11:35:22;;;;;;;6.00;5.40;;;27.70;56.20;;;;;;5053268;28;20477;-72
2023/06/01 11:37:57;;;;;;;6.97;6.13;;;27.80;56.30;;;;;;5070032;28;20479;-72
2023/06/01 11:40:26;;;;;;;6.70;6.10;;;27.80;56.20;;;;;;5050123;28;21187;-71
2023/06/01 11:43:00;;;;;;;7.70;5.53;;;27.80;56.30;;;;;;5071908;28;20460;-73
2023/06/01 11:45:31;;;;;;;5.60;5.10;;;27.80;56.30;;;;;;5064089;28;20482;-72
2023/06/01 11:48:11;;;;;;;5.20;4.80;;;27.90;56.10;;;;;;5075567;28;20497;-74
2023/06/01 11:50:48;;;;;;;6.33;5.37;;;27.90;56.20;;;;;;5070545;28;20999;-72
2023/06/01 11:53:16;;;;;;;7.07;5.47;;;27.90;56.00;;;;;;5070980;28;20478;-72
2023/06/01 11:55:51;;;;;;;7.13;6.23;;;28.00;55.90;;;;;;5075569;28;20462;-73
2023/06/01 11:58:23;;;;;;;6.83;5.17;;;28.10;56.00;;;;;;5074663;28;20566;-73
2023/06/01 12:00:57;;;;;;;5.63;5.20;;;28.10;55.80;;;;;;5072967;28;20966;-73
2023/06/01 12:03:25;;;;;;;5.50;5.00;;;28.20;55.60;;;;;;5071783;28;20468;-74
2023/06/01 12:05:56;;;;;;;7.10;6.00;;;28.30;55.30;;;;;;5074010;28;20513;-75
2023/06/01 12:08:27;;;;;;;6.40;5.83;;;28.40;55.20;;;;;;5069401;28;20449;-72
2023/06/01 12:10:56;;;;;;;6.13;5.53;;;28.50;54.90;;;;;;5066067;28;20456;-72
2023/06/01 12:13:25;;;;;;;6.80;6.10;;;28.70;54.70;;;;;;5068111;28;21028;-72
2023/06/01 12:15:55;;;;;;;6.40;5.90;;;28.80;54.40;;;;;;5070739;28;20468;-71
2023/06/01 12:18:32;;;;;;;6.97;6.27;;;29.00;54.40;;;;;;5065355;28;20467;-71
2023/06/01 12:21:09;;;;;;;11.33;7.27;;;29.20;54.10;;;;;;5060789;28;20512;-71
2023/06/01 12:23:37;;;;;;;7.33;5.83;;;29.30;53.80;;;;;;5067180;28;20459;-72
2023/06/01 12:26:07;;;;;;;6.40;5.83;;;29.40;53.60;;;;;;5070908;28;20507;-72
2023/06/01 12:28:52;;;;;;;6.93;5.80;;;29.50;53.40;;;;;;5071010;28;20848;-73
2023/06/01 12:31:29;;;;;;;7.87;6.33;;;29.50;53.40;;;;;;5070420;28;20438;-72
2023/06/01 12:33:57;;;;;;;6.83;6.20;;;29.50;53.40;;;;;;5068331;28;20473;-72
2023/06/01 12:36:33;;;;;;;6.80;6.13;;;29.40;53.30;;;;;;5071119;28;20450;-72
2023/06/01 12:39:03;;;;;;;6.60;6.00;;;29.40;53.40;;;;;;5069905;28;20471;-72
2023/06/01 12:41:32;;;;;;;6.23;5.67;;;29.30;53.50;;;;;;5070106;28;20509;-72
2023/06/01 12:44:00;;;;;;;8.50;6.57;;;29.30;53.50;;;;;;5068824;28;20436;-72
2023/06/01 12:46:32;;;;;;;7.07;6.37;;;29.30;53.40;;;;;;5070756;28;21087;-72
2023/06/01 12:49:12;;;;;;;6.37;5.77;;;29.30;53.40;;;;;;5070229;28;20482;-72
2023/06/01 12:51:41;;;;;;;6.13;5.63;;;29.20;53.50;;;;;;5070556;28;20542;-72
2023/06/01 12:54:09;;;;;;;6.40;5.70;;;29.20;53.60;;;;;;5074562;28;20530;-71
2023/06/01 12:56:37;;;;;;;6.43;5.77;;;29.10;53.60;;;;;;5072980;28;20485;-71
2023/06/01 12:59:08;;;;;;;6.30;5.47;;;29.10;53.70;;;;;;5069771;28;20491;-71
2023/06/01 13:01:37;;;;;;;7.23;6.53;;;29.00;53.70;;;;;;5056318;28;20507;-72
2023/06/01 13:04:07;;;;;;;8.90;7.17;;;28.90;53.90;;;;;;5051076;28;20464;-71
2023/06/01 13:06:37;;;;;;;7.07;5.50;;;28.90;53.90;;;;;;5072611;28;20482;-71